Time;durP1;ratioP1;P1;durP2;ratioP2;P2;SDS_P1;SDS_P2;PMS_P1;PMS_P2;Temp;Humidity;BMP_temperature;BMP_pressure;BME280_temperature;BME280_humidity;BME280_pressure;Samples;Min_cycle;Max_cycle;Signal;HPM_P1;HPM_P2
2022/10/08 00:01:00;;;;;;;;;;;;;;;14.30;67.81;100215.75;4337554;33;36190;-89
2022/10/08 00:03:36;;;;;;;;;;;;;;;14.34;67.51;100214.81;4317165;33;31725;-90
2022/10/08 00:06:20;;;;;;;;;;;;;;;14.32;67.72;100215.75;4320776;33;34284;-89
2022/10/08 00:09:03;;;;;;;;;;;;;;;14.35;67.61;100215.66;4320784;33;34420;-89
2022/10/08 00:11:42;;;;;;;;;;;;;;;14.29;67.62;100217.50;4320799;33;34145;-89
2022/10/08 00:14:28;;;;;;;;;;;;;;;14.37;67.21;100217.34;4321250;33;35200;-90
2022/10/08 00:17:07;;;;;;;;;;;;;;;14.23;67.57;100215.03;4322023;33;33636;-90
2022/10/08 00:19:56;;;;;;;;;;;;;;;14.21;67.50;100209.00;4333504;33;32974;-89
2022/10/08 00:22:33;;;;;;;;;;;;;;;14.16;67.64;100208.22;4316736;33;34873;-90
2022/10/08 00:25:16;;;;;;;;;;;;;;;14.14;67.73;100198.72;4316411;33;31688;-92
2022/10/08 00:27:56;;;;;;;;;;;;;;;14.11;67.77;100204.84;4327770;33;36738;-90
2022/10/08 00:30:41;;;;;;;;;;;;;;;14.20;67.29;100194.22;4323614;33;35146;-89
2022/10/08 00:33:22;;;;;;;;;;;;;;;14.15;67.94;100200.41;4320361;33;33171;-89
2022/10/08 00:36:05;;;;;;;;;;;;;;;14.18;67.94;100190.78;4304216;33;33647;-88
2022/10/08 00:38:50;;;;;;;;;;;;;;;14.10;68.12;100187.47;4316374;33;33326;-89
2022/10/08 00:41:37;;;;;;;;;;;;;;;14.12;67.99;100184.81;4320790;33;33947;-90
2022/10/08 00:44:37;;;;;;;;;;;;;;;14.22;67.85;100181.12;4320234;33;32712;-88
2022/10/08 00:47:18;;;;;;;;;;;;;;;14.11;68.19;100178.75;4316012;33;33727;-89
2022/10/08 00:49:59;;;;;;;;;;;;;;;14.17;67.87;100170.78;4320103;33;33510;-89
2022/10/08 00:53:08;;;;;;;;;;;;;;;14.22;67.66;100174.16;4319256;33;34253;-91
2022/10/08 00:55:57;;;;;;;;;;;;;;;14.16;68.04;100166.47;4328936;33;33336;-89
2022/10/08 00:58:40;;;;;;;;;;;;;;;14.13;68.05;100169.13;4305095;33;33398;-92
2022/10/08 01:01:35;;;;;;;;;;;;;;;14.13;68.18;100165.66;4326404;33;32625;-92
2022/10/08 01:04:21;;;;;;;;;;;;;;;14.09;68.18;100165.72;4319729;33;34830;-91
2022/10/08 01:07:24;;;;;;;;;;;;;;;14.06;68.39;100165.81;4318429;33;32770;-89
2022/10/08 01:10:04;;;;;;;;;;;;;;;14.06;68.01;100168.41;4189824;33;4257650;-91
2022/10/08 01:12:45;;;;;;;;;;;;;;;14.08;68.17;100169.22;4318840;33;33282;-91
2022/10/08 01:15:28;;;;;;;;;;;;;;;14.00;68.37;100171.12;4311561;33;33509;-92
2022/10/08 01:18:13;;;;;;;;;;;;;;;14.04;68.46;100158.91;4320022;33;32812;-91
2022/10/08 01:20:52;;;;;;;;;;;;;;;13.98;68.25;100159.84;4331239;33;32580;-90
2022/10/08 01:23:35;;;;;;;;;;;;;;;14.10;67.96;100156.16;4333460;33;35111;-92
2022/10/08 01:26:25;;;;;;;;;;;;;;;14.16;67.75;100152.53;4332725;33;33654;-90
2022/10/08 01:29:22;;;;;;;;;;;;;;;14.14;67.74;100151.75;4320434;33;32918;-89
2022/10/08 01:32:13;;;;;;;;;;;;;;;14.02;67.90;100152.84;4336506;33;33807;-91
2022/10/08 01:34:52;;;;;;;;;;;;;;;14.06;67.93;100144.94;4322080;33;33641;-90
2022/10/08 01:37:28;;;;;;;;;;;;;;;14.01;67.61;100141.56;4318511;33;32941;-90
2022/10/08 01:40:14;;;;;;;;;;;;;;;13.91;67.83;100139.16;4320625;33;32777;-91
2022/10/08 01:42:56;;;;;;;;;;;;;;;14.13;66.91;100137.81;4328809;33;32077;-91
2022/10/08 01:45:45;;;;;;;;;;;;;;;13.97;67.20;100139.03;4319368;33;33470;-90
2022/10/08 01:48:46;;;;;;;;;;;;;;;13.91;67.71;100139.16;4333118;33;34445;-90
2022/10/08 01:51:26;;;;;;;;;;;;;;;13.85;67.58;100125.34;4337089;33;34159;-89
2022/10/08 01:54:06;;;;;;;;;;;;;;;13.79;67.65;100124.59;4334613;33;33521;-91
2022/10/08 01:56:50;;;;;;;;;;;;;;;13.77;67.50;100123.75;4319470;33;33832;-91
2022/10/08 01:59:32;;;;;;;;;;;;;;;13.52;68.60;100112.94;4329067;33;32530;-92
2022/10/08 02:02:16;;;;;;;;;;;;;;;13.61;68.14;100115.37;4330306;33;34906;-89
2022/10/08 02:05:01;;;;;;;;;;;;;;;13.87;67.39;100125.31;4317599;33;33421;-91
2022/10/08 02:07:46;;;;;;;;;;;;;;;13.72;67.75;100123.00;4332397;33;34564;-92
2022/10/08 02:10:35;;;;;;;;;;;;;;;13.72;67.49;100118.63;4317785;33;33348;-92
2022/10/08 02:13:14;;;;;;;;;;;;;;;13.57;67.87;100117.19;4329473;33;33625;-93
2022/10/08 02:16:11;;;;;;;;;;;;;;;13.59;68.09;100119.75;4326146;33;32343;-91
2022/10/08 02:18:57;;;;;;;;;;;;;;;13.38;68.52;100118.41;4315871;33;37066;-91
2022/10/08 02:21:55;;;;;;;;;;;;;;;;;;;;;
2022/10/08 02:24:42;;;;;;;;;;;;;;;13.41;68.80;100120.97;4318839;33;34573;-93
2022/10/08 02:30:50;;;;;;;;;;;;;;;13.29;68.88;100110.75;4327692;33;33621;-92
2022/10/08 02:33:59;;;;;;;;;;;;;;;13.30;68.62;100105.50;4328100;33;37078;-93
2022/10/08 02:36:45;;;;;;;;;;;;;;;13.42;67.99;100099.22;4332885;33;35211;-91
2022/10/08 02:39:34;;;;;;;;;;;;;;;13.13;68.84;100107.53;4320217;33;31597;-93
2022/10/08 02:42:34;;;;;;;;;;;;;;;13.27;68.00;100110.78;4316320;33;33090;-92
2022/10/08 02:45:31;;;;;;;;;;;;;;;13.31;67.76;100104.63;4314725;33;33671;-91
2022/10/08 02:48:15;;;;;;;;;;;;;;;13.30;67.77;100108.13;4329447;33;33786;-91
2022/10/08 02:50:58;;;;;;;;;;;;;;;13.26;67.56;100108.16;4329773;33;33714;-91
2022/10/08 02:53:44;;;;;;;;;;;;;;;13.25;67.36;100109.91;4326323;33;32879;-93
2022/10/08 02:56:44;;;;;;;;;;;;;;;13.10;67.84;100102.38;4315904;33;33809;-92
2022/10/08 02:59:30;;;;;;;;;;;;;;;13.04;67.87;100098.09;4323650;33;33436;-91
2022/10/08 03:02:06;;;;;;;;;;;;;;;13.10;67.60;100107.59;4327578;33;34351;-90
2022/10/08 03:04:50;;;;;;;;;;;;;;;13.09;67.58;100100.63;4322001;33;33609;-91
2022/10/08 03:07:39;;;;;;;;;;;;;;;12.90;68.14;100106.16;4326621;33;33951;-91
2022/10/08 03:10:25;;;;;;;;;;;;;;;13.10;66.98;100108.44;4326930;33;34466;-92
2022/10/08 03:13:08;;;;;;;;;;;;;;;13.02;67.21;100102.47;4326142;33;32924;-92
2022/10/08 03:16:06;;;;;;;;;;;;;;;12.99;67.30;100100.78;4308131;33;34130;-91
2022/10/08 03:18:45;;;;;;;;;;;;;;;12.93;67.15;100100.91;4313807;33;33803;-92
2022/10/08 03:21:41;;;;;;;;;;;;;;;12.98;67.03;100100.84;4330911;33;36276;-93
2022/10/08 03:24:35;;;;;;;;;;;;;;;12.97;67.12;100099.94;4316887;33;32280;-92
2022/10/08 03:27:17;;;;;;;;;;;;;;;12.94;67.26;100100.00;4313934;33;34920;-91
2022/10/08 03:29:58;;;;;;;;;;;;;;;12.99;66.79;100115.56;4323462;33;33566;-94
2022/10/08 03:32:41;;;;;;;;;;;;;;;12.88;67.05;100102.72;4326266;33;33773;-92
2022/10/08 03:35:28;;;;;;;;;;;;;;;12.83;67.10;100104.53;4310015;33;31681;-92
2022/10/08 03:38:18;;;;;;;;;;;;;;;12.74;67.29;100109.88;4309048;33;32528;-92
2022/10/08 03:41:08;;;;;;;;;;;;;;;;;;;;;
2022/10/08 03:43:56;;;;;;;;;;;;;;;12.72;67.15;100107.31;4300681;33;32797;-92
2022/10/08 03:46:36;;;;;;;;;;;;;;;12.80;66.88;100104.56;4327627;33;33179;-92
2022/10/08 03:49:16;;;;;;;;;;;;;;;12.68;67.37;100104.75;4322070;33;34450;-92
2022/10/08 03:52:00;;;;;;;;;;;;;;;12.73;67.30;100108.16;4312507;33;33193;-89
2022/10/08 03:54:43;;;;;;;;;;;;;;;12.68;67.52;100099.56;4329348;33;33951;-91
2022/10/08 03:57:24;;;;;;;;;;;;;;;12.66;67.42;100097.00;4327755;33;33091;-91
2022/10/08 04:00:08;;;;;;;;;;;;;;;12.78;67.33;100096.81;4322104;33;34835;-93
2022/10/08 04:02:47;;;;;;;;;;;;;;;12.84;67.02;100093.22;4299114;33;37115;-94
2022/10/08 04:05:21;;;;;;;;;;;;;;;12.82;66.99;100095.84;4325259;33;34426;-91
2022/10/08 04:07:59;;;;;;;;;;;;;;;12.75;67.43;100096.81;4318134;33;32434;-91
2022/10/08 04:10:47;;;;;;;;;;;;;;;12.80;67.12;100091.56;4325242;33;34971;-92
2022/10/08 04:13:25;;;;;;;;;;;;;;;12.60;68.04;100087.50;4331339;33;34813;-92
2022/10/08 04:16:16;;;;;;;;;;;;;;;12.71;67.71;100083.88;4325344;33;33789;-93
2022/10/08 04:21:41;;;;;;;;;;;;;;;12.69;67.32;100080.47;4326834;33;33695;-91
2022/10/08 04:24:12;;;;;;;;;;;;;;;12.58;67.59;100086.69;4324429;33;32896;-92
2022/10/08 04:26:55;;;;;;;;;;;;;;;12.55;67.61;100083.28;4309433;33;33511;-90
2022/10/08 04:29:48;;;;;;;;;;;;;;;12.60;67.35;100087.50;4332978;33;33624;-91
2022/10/08 04:32:32;;;;;;;;;;;;;;;12.61;67.25;100085.75;4310908;33;33348;-93
2022/10/08 04:35:13;;;;;;;;;;;;;;;12.65;66.99;100082.25;4325633;33;33005;-91
2022/10/08 04:37:55;;;;;;;;;;;;;;;12.58;67.33;100088.41;4323397;33;32836;-93
2022/10/08 04:40:37;;;;;;;;;;;;;;;12.59;67.63;100087.56;4329127;33;31728;-89
2022/10/08 04:43:18;;;;;;;;;;;;;;;12.45;68.08;100092.97;4330555;33;33476;-91
2022/10/08 04:45:59;;;;;;;;;;;;;;;12.58;67.59;100096.22;4315090;33;33044;-90
2022/10/08 04:48:36;;;;;;;;;;;;;;;12.51;67.68;100086.78;4321014;33;33945;-90
2022/10/08 04:51:15;;;;;;;;;;;;;;;12.55;67.73;100091.09;4317420;33;32292;-89
2022/10/08 04:54:08;;;;;;;;;;;;;;;12.45;68.29;100090.34;4317550;33;33862;-92
2022/10/08 04:56:44;;;;;;;;;;;;;;;12.49;68.18;100088.56;4313482;33;32676;-94
2022/10/08 04:59:58;;;;;;;;;;;;;;;12.47;68.51;100087.75;4324097;33;33924;-90
2022/10/08 05:02:56;;;;;;;;;;;;;;;12.57;68.34;100090.16;4328558;33;33371;-89
2022/10/08 05:05:50;;;;;;;;;;;;;;;12.62;68.70;100090.09;4326955;33;35314;-90
2022/10/08 05:08:32;;;;;;;;;;;;;;;12.48;69.03;100090.31;4318202;33;34255;-92
2022/10/08 05:11:14;;;;;;;;;;;;;;;12.65;69.11;100092.66;4318202;33;32427;-91
2022/10/08 05:14:19;;;;;;;;;;;;;;;12.71;69.11;100095.19;4316762;33;32850;-91
2022/10/08 05:17:00;;;;;;;;;;;;;;;12.77;69.28;100087.25;4313226;33;32792;-92
2022/10/08 05:19:43;;;;;;;;;;;;;;;12.90;69.14;100097.47;4324124;33;33546;-94
2022/10/08 05:22:57;;;;;;;;;;;;;;;12.88;69.28;100094.91;4321114;33;33961;-91
2022/10/08 05:25:56;;;;;;;;;;;;;;;12.95;69.54;100093.94;4313589;33;34092;-92
2022/10/08 05:28:35;;;;;;;;;;;;;;;12.85;70.44;100087.13;4323272;33;33949;-92
2022/10/08 05:31:22;;;;;;;;;;;;;;;13.05;70.28;100092.03;4328807;33;33221;-91
2022/10/08 05:34:01;;;;;;;;;;;;;;;13.09;70.26;100096.28;4329360;33;33782;-91
2022/10/08 05:36:45;;;;;;;;;;;;;;;13.06;70.40;100096.34;4311922;33;31694;-92
2022/10/08 05:39:24;;;;;;;;;;;;;;;13.16;70.65;100099.66;4310815;33;33461;-91
2022/10/08 05:42:12;;;;;;;;;;;;;;;13.24;70.63;100096.03;4314243;33;33686;-94
2022/10/08 05:44:51;;;;;;;;;;;;;;;13.27;71.05;100102.97;4316150;33;34156;-92
2022/10/08 05:47:30;;;;;;;;;;;;;;;13.40;70.86;100099.25;4316649;33;32652;-93
2022/10/08 05:50:03;;;;;;;;;;;;;;;13.43;71.20;100101.81;4320909;33;34392;-91
2022/10/08 05:52:57;;;;;;;;;;;;;;;13.55;71.26;100103.31;4329898;33;33765;-96
2022/10/08 05:55:43;;;;;;;;;;;;;;;13.58;71.68;100107.59;4329820;33;34732;-92
2022/10/08 05:58:52;;;;;;;;;;;;;;;13.48;72.22;100112.13;4323946;33;33395;-91
2022/10/08 06:01:47;;;;;;;;;;;;;;;;;;;;;
2022/10/08 06:04:32;;;;;;;;;;;;;;;13.82;71.87;100122.81;4320365;33;34270;-93
2022/10/08 06:07:38;;;;;;;;;;;;;;;13.89;72.13;100128.72;4318312;33;33565;-91
2022/10/08 06:10:26;;;;;;;;;;;;;;;13.99;71.84;100117.25;4321467;33;31796;-92
2022/10/08 06:13:01;;;;;;;;;;;;;;;14.07;71.50;100117.09;4322127;33;33771;-91
2022/10/08 06:15:47;;;;;;;;;;;;;;;13.92;72.26;100118.25;4314247;33;34131;-90
2022/10/08 06:18:46;;;;;;;;;;;;;;;14.04;71.72;100124.97;4315169;33;34907;-90
2022/10/08 06:21:41;;;;;;;;;;;;;;;14.06;71.77;100126.66;4315505;33;31794;-91
2022/10/08 06:24:44;;;;;;;;;;;;;;;14.16;71.46;100135.16;4314304;33;34653;-90
2022/10/08 06:27:47;;;;;;;;;;;;;;;14.05;72.33;100137.12;4321021;33;36991;-91
2022/10/08 06:33:53;;;;;;;;;;;;;;;14.28;71.88;100134.06;4315969;33;32504;-90
2022/10/08 06:36:36;;;;;;;;;;;;;;;14.44;71.51;100134.56;4330184;33;33842;-90
2022/10/08 06:39:40;;;;;;;;;;;;;;;14.63;71.24;100129.81;4319007;33;34440;-89
2022/10/08 06:42:33;;;;;;;;;;;;;;;14.55;71.91;100139.59;4328423;33;36846;-89
2022/10/08 06:45:26;;;;;;;;;;;;;;;14.66;72.06;100137.59;4329485;33;33136;-91
2022/10/08 06:47:58;;;;;;;;;;;;;;;14.65;72.29;100143.72;4320002;33;33754;-89
2022/10/08 06:51:16;;;;;;;;;;;;;;;14.54;73.30;100149.16;4314695;33;35292;-90
2022/10/08 06:54:00;;;;;;;;;;;;;;;14.85;71.62;100149.31;4308772;33;33861;-92
2022/10/08 06:57:25;;;;;;;;;;;;;;;;;;;;;
2022/10/08 07:00:16;;;;;;;;;;;;;;;14.92;71.53;100158.72;4316117;33;33940;-90
2022/10/08 07:03:18;;;;;;;;;;;;;;;15.10;70.62;100151.34;4331171;33;36600;-89
2022/10/08 07:05:59;;;;;;;;;;;;;;;14.97;71.58;100155.16;4301258;33;34263;-90
2022/10/08 07:09:05;;;;;;;;;;;;;;;14.93;72.02;100155.25;4298134;33;35957;-90
2022/10/08 07:11:48;;;;;;;;;;;;;;;15.23;70.34;100149.31;4312898;33;34058;-90
2022/10/08 07:14:32;;;;;;;;;;;;;;;15.10;70.84;100147.00;4305292;33;33753;-92
2022/10/08 07:18:03;;;;;;;;;;;;;;;15.21;70.64;100135.41;4318799;33;35677;-91
2022/10/08 07:21:04;;;;;;;;;;;;;;;15.45;69.57;100150.47;4307031;33;35606;-92
2022/10/08 07:24:13;;;;;;;;;;;;;;;15.40;70.31;100154.12;4299057;33;36479;-92
2022/10/08 07:27:24;;;;;;;;;;;;;;;15.49;69.64;100149.50;4311411;33;34349;-91
2022/10/08 07:36:51;;;;;;;;;;;;;;;15.89;67.59;100151.06;4299275;33;34424;-90
2022/10/08 07:40:03;;;;;;;;;;;;;;;15.61;69.07;100142.22;4318524;33;35477;-92
2022/10/08 07:43:08;;;;;;;;;;;;;;;15.47;70.01;100145.22;4318044;33;34627;-90
2022/10/08 07:46:28;;;;;;;;;;;;;;;;;;;;;
2022/10/08 07:49:46;;;;;;;;;;;;;;;15.82;68.08;100141.66;4303095;33;34631;-92
2022/10/08 07:52:49;;;;;;;;;;;;;;;15.91;67.76;100140.56;4317852;33;35041;-90
2022/10/08 07:55:32;;;;;;;;;;;;;;;16.07;66.65;100146.22;4307688;33;37104;-92
2022/10/08 07:58:39;;;;;;;;;;;;;;;16.03;66.65;100137.59;4318330;33;35423;-91
2022/10/08 08:01:40;;;;;;;;;;;;;;;15.92;67.26;100145.78;4300060;33;33249;-92
2022/10/08 08:04:49;;;;;;;;;;;;;;;16.05;66.32;100135.81;4316108;33;36336;-92
2022/10/08 08:07:52;;;;;;;;;;;;;;;16.05;66.56;100143.66;4329662;33;33091;-93
2022/10/08 08:11:03;;;;;;;;;;;;;;;16.39;65.19;100137.44;4322801;33;33660;-91
2022/10/08 08:14:06;;;;;;;;;;;;;;;16.45;64.94;100139.00;4314188;33;33566;-92
2022/10/08 08:17:29;;;;;;;;;;;;;;;16.45;65.15;100139.00;4307347;33;36459;-92
2022/10/08 08:20:40;;;;;;;;;;;;;;;16.52;64.63;100141.38;4326051;33;34930;-91
2022/10/08 08:23:48;;;;;;;;;;;;;;;16.54;64.02;100134.34;4318984;33;32779;-90
2022/10/08 08:26:52;;;;;;;;;;;;;;;16.72;63.53;100134.66;4315903;33;35298;-92
2022/10/08 08:29:44;;;;;;;;;;;;;;;16.67;64.10;100136.59;4324171;33;34930;-89
2022/10/08 08:32:36;;;;;;;;;;;;;;;16.66;63.67;100134.88;4318412;33;33955;-91
2022/10/08 08:35:15;;;;;;;;;;;;;;;16.85;62.86;100136.03;4330874;33;34849;-90
2022/10/08 08:38:00;;;;;;;;;;;;;;;16.64;63.67;100137.53;4323540;33;33405;-90
2022/10/08 08:41:07;;;;;;;;;;;;;;;16.92;62.69;100142.81;4325095;33;36416;-92
2022/10/08 08:44:15;;;;;;;;;;;;;;;16.90;62.04;100134.12;4316135;33;33845;-91
2022/10/08 08:47:11;;;;;;;;;;;;;;;16.75;63.05;100137.22;4330906;33;32853;-90
2022/10/08 08:49:54;;;;;;;;;;;;;;;16.93;62.13;100128.78;4319969;33;34234;-92
2022/10/08 08:52:40;;;;;;;;;;;;;;;17.00;62.15;100129.44;4325242;33;34668;-91
2022/10/08 08:55:52;;;;;;;;;;;;;;;17.05;61.89;100130.16;4314975;33;37085;-91
2022/10/08 08:58:50;;;;;;;;;;;;;;;17.25;61.74;100124.25;4317290;33;35727;-92
2022/10/08 09:01:34;;;;;;;;;;;;;;;17.20;61.96;100118.28;4324413;33;33387;-92
2022/10/08 09:04:16;;;;;;;;;;;;;;;17.33;61.29;100126.62;4337065;33;34214;-92
2022/10/08 09:06:53;;;;;;;;;;;;;;;17.48;60.76;100132.19;4335931;33;35123;-91
2022/10/08 09:09:30;;;;;;;;;;;;;;;17.47;60.34;100129.63;4323137;33;33265;-91
2022/10/08 09:12:18;;;;;;;;;;;;;;;17.42;60.61;100121.91;4334246;33;33375;-91
2022/10/08 09:15:08;;;;;;;;;;;;;;;17.61;60.53;100129.97;4334596;33;34945;-92
2022/10/08 09:18:13;;;;;;;;;;;;;;;17.33;61.79;100135.34;4324338;33;36483;-89
2022/10/08 09:21:04;;;;;;;;;;;;;;;17.60;60.26;100128.28;4335014;33;35491;-90
2022/10/08 09:23:54;;;;;;;;;;;;;;;17.68;60.11;100122.75;4334177;33;34317;-92
2022/10/08 09:26:37;;;;;;;;;;;;;;;17.84;60.09;100134.47;4329519;33;33807;-92
2022/10/08 09:29:46;;;;;;;;;;;;;;;17.91;60.01;100128.06;4320404;33;33017;-92
2022/10/08 09:32:53;;;;;;;;;;;;;;;18.02;59.15;100129.44;4332772;33;35643;-90
2022/10/08 09:35:45;;;;;;;;;;;;;;;18.07;58.87;100124.87;4333719;33;34250;-91
2022/10/08 09:38:35;;;;;;;;;;;;;;;18.24;57.84;100124.25;4321834;33;35337;-89
2022/10/08 09:41:22;;;;;;;;;;;;;;;18.41;57.46;100119.22;4334335;33;34160;-91
2022/10/08 09:44:31;;;;;;;;;;;;;;;18.54;57.60;100123.06;4326775;33;35861;-89
2022/10/08 09:47:06;;;;;;;;;;;;;;;18.62;57.01;100121.91;4323193;33;32392;-91
2022/10/08 09:50:28;;;;;;;;;;;;;;;18.38;57.58;100113.22;4325981;33;34718;-89
2022/10/08 09:53:16;;;;;;;;;;;;;;;18.62;57.62;100122.78;4332027;33;33914;-89
2022/10/08 09:56:08;;;;;;;;;;;;;;;18.63;57.77;100108.72;4317467;33;32376;-90
2022/10/08 09:59:05;;;;;;;;;;;;;;;18.76;57.71;100109.97;4335010;33;36291;-93
2022/10/08 10:01:54;;;;;;;;;;;;;;;18.86;57.10;100104.34;4316035;33;35112;-92
2022/10/08 10:04:37;;;;;;;;;;;;;;;19.01;56.32;100103.69;4317855;33;32457;-90
2022/10/08 10:07:39;;;;;;;;;;;;;;;18.98;56.17;100101.22;4315865;33;33203;-91
2022/10/08 10:10:37;;;;;;;;;;;;;;;19.22;55.78;100101.09;4330105;33;34319;-90
2022/10/08 10:16:11;;;;;;;;;;;;;;;19.32;54.47;100089.28;4315416;33;34039;-92
2022/10/08 10:19:30;;;;;;;;;;;;;;;19.34;53.55;100084.81;4318296;33;33597;-91
2022/10/08 10:22:23;;;;;;;;;;;;;;;19.50;52.78;100079.72;4317093;33;32934;-95
2022/10/08 10:25:22;;;;;;;;;;;;;;;19.43;53.82;100073.88;4322416;33;33634;-91
2022/10/08 10:28:03;;;;;;;;;;;;;;;19.50;52.28;100074.44;4329701;33;32505;-92
2022/10/08 10:30:42;;;;;;;;;;;;;;;19.82;51.39;100070.44;4322418;33;33264;-92
2022/10/08 10:33:19;;;;;;;;;;;;;;;19.88;52.34;100064.03;4330169;33;33773;-92
2022/10/08 10:36:03;;;;;;;;;;;;;;;19.86;51.97;100061.47;4314798;33;33514;-95
2022/10/08 10:38:49;;;;;;;;;;;;;;;19.99;51.45;100059.97;4316943;33;34439;-90
2022/10/08 10:41:38;;;;;;;;;;;;;;;19.91;52.59;100059.50;4330500;33;33531;-92
2022/10/08 10:44:28;;;;;;;;;;;;;;;20.02;51.44;100051.94;4329068;33;33612;-92
2022/10/08 10:47:25;;;;;;;;;;;;;;;20.00;50.67;100051.13;4315193;33;34833;-94
2022/10/08 10:50:15;;;;;;;;;;;;;;;20.29;49.06;100045.44;4315970;33;36184;-93
2022/10/08 10:53:13;;;;;;;;;;;;;;;20.42;49.12;100041.31;4314216;33;36100;-93
2022/10/08 10:55:53;;;;;;;;;;;;;;;20.23;50.27;100034.28;4297424;33;33853;-93
2022/10/08 10:58:46;;;;;;;;;;;;;;;20.47;49.19;100031.38;4302641;33;35070;-92
2022/10/08 11:01:38;;;;;;;;;;;;;;;20.54;49.43;100026.66;4296911;33;33593;-94
2022/10/08 11:04:29;;;;;;;;;;;;;;;20.48;48.71;100029.59;4305917;33;32726;-93
2022/10/08 11:10:59;;;;;;;;;;;;;;;20.57;48.23;100016.84;4289274;33;35137;-92
2022/10/08 11:14:02;;;;;;;;;;;;;;;20.69;49.22;100019.81;4314166;33;34341;-93
2022/10/08 11:17:12;;;;;;;;;;;;;;;20.86;49.37;100012.75;4317350;33;35754;-91
2022/10/08 11:20:17;;;;;;;;;;;;;;;20.95;48.93;100007.94;4317071;33;37032;-92
2022/10/08 11:23:34;;;;;;;;;;;;;;;21.01;47.92;100010.28;4303517;33;34773;-96
2022/10/08 11:26:26;;;;;;;;;;;;;;;21.13;47.45;100008.78;4311814;33;36764;-93
2022/10/08 11:29:20;;;;;;;;;;;;;;;21.19;47.11;100005.81;4311687;33;34467;-95
2022/10/08 11:32:08;;;;;;;;;;;;;;;21.22;46.60;100008.31;4299454;33;34226;-93
2022/10/08 11:35:20;;;;;;;;;;;;;;;21.24;47.42;100002.03;4307027;33;34556;-95
2022/10/08 11:38:30;;;;;;;;;;;;;;;21.39;46.96;99995.13;4311036;33;34384;-93
2022/10/08 11:41:35;;;;;;;;;;;;;;;21.31;47.67;99987.59;4313913;33;35560;-94
2022/10/08 11:44:25;;;;;;;;;;;;;;;21.43;46.68;99988.75;4297860;33;36808;-93
2022/10/08 11:47:38;;;;;;;;;;;;;;;21.35;47.52;99992.69;4302449;33;34791;-92
2022/10/08 11:53:30;;;;;;;;;;;;;;;21.21;45.89;99982.84;4312026;33;34548;-92
2022/10/08 11:56:12;;;;;;;;;;;;;;;21.35;47.07;99982.97;4316904;33;36820;-93
2022/10/08 11:58:57;;;;;;;;;;;;;;;21.54;47.98;99979.41;4313262;33;34926;-92
2022/10/08 12:02:03;;;;;;;;;;;;;;;21.42;48.95;99979.13;4300546;33;34030;-93
2022/10/08 12:05:08;;;;;;;;;;;;;;;21.38;47.11;99974.03;4299558;33;34191;-94
2022/10/08 12:11:16;;;;;;;;;;;;;;;21.46;46.53;99966.62;4315569;33;35839;-93
2022/10/08 12:14:15;;;;;;;;;;;;;;;21.65;46.56;99962.03;4310374;33;33982;-92
2022/10/08 12:17:24;;;;;;;;;;;;;;;;;;;;;
2022/10/08 12:20:31;;;;;;;;;;;;;;;21.68;46.53;99958.38;4325526;33;35644;-94
2022/10/08 12:23:20;;;;;;;;;;;;;;;21.76;47.21;99960.59;4326604;33;33373;-94
2022/10/08 12:29:57;;;;;;;;;;;;;;;21.82;45.45;99952.31;4323883;33;32609;-92
2022/10/08 12:33:04;;;;;;;;;;;;;;;21.71;46.11;99945.84;4311270;33;36399;-93
2022/10/08 12:36:06;;;;;;;;;;;;;;;21.92;46.38;99937.69;4323599;33;34116;-92
2022/10/08 12:39:01;;;;;;;;;;;;;;;21.82;44.51;99947.03;4328218;33;35204;-93
2022/10/08 12:41:48;;;;;;;;;;;;;;;21.97;44.84;99938.28;4337583;33;34310;-94
2022/10/08 12:44:45;;;;;;;;;;;;;;;21.91;46.03;99941.25;4318148;33;35092;-91
2022/10/08 12:47:40;;;;;;;;;;;;;;;22.01;46.80;99929.25;4321537;33;36712;-94
2022/10/08 12:50:43;;;;;;;;;;;;;;;21.97;46.21;99934.78;4315482;33;34849;-92
2022/10/08 12:53:53;;;;;;;;;;;;;;;22.09;47.03;99937.56;4304686;33;34241;-93
2022/10/08 12:56:57;;;;;;;;;;;;;;;22.07;47.73;99928.88;4320976;33;34022;-94
2022/10/08 12:59:52;;;;;;;;;;;;;;;22.10;47.33;99926.06;4320017;33;34255;-92
2022/10/08 13:02:38;;;;;;;;;;;;;;;22.14;46.02;99919.66;4314674;33;34286;-94
2022/10/08 13:05:42;;;;;;;;;;;;;;;22.05;46.06;99920.19;4308726;33;34121;-94
2022/10/08 13:09:08;;;;;;;;;;;;;;;21.90;45.92;99924.56;4305265;33;36752;-95
2022/10/08 13:12:06;;;;;;;;;;;;;;;22.04;46.59;99917.66;4307878;33;35341;-93
2022/10/08 13:15:04;;;;;;;;;;;;;;;22.11;47.10;99919.84;4308454;33;33927;-92
2022/10/08 13:18:04;;;;;;;;;;;;;;;22.03;48.02;99918.56;4322028;33;36071;-95
2022/10/08 13:21:13;;;;;;;;;;;;;;;21.98;47.57;99923.25;4308426;33;34262;-93
2022/10/08 13:28:00;;;;;;;;;;;;;;;22.27;47.37;99913.69;4323624;33;34222;-92
2022/10/08 13:31:36;;;;;;;;;;;;;;;22.39;46.50;99918.28;4309163;33;34083;-91
2022/10/08 13:38:21;;;;;;;;;;;;;;;22.34;45.37;99910.59;4323929;33;37196;-92
2022/10/08 13:44:44;;;;;;;;;;;;;;;22.62;46.00;99909.00;4308715;33;35333;-93
2022/10/08 13:47:52;;;;;;;;;;;;;;;22.66;46.30;99910.50;4312019;33;34848;-92
2022/10/08 13:51:18;;;;;;;;;;;;;;;22.67;46.23;99901.63;4315262;33;35414;-94
2022/10/08 13:54:07;;;;;;;;;;;;;;;22.64;45.25;99900.94;4317705;33;36029;-96
2022/10/08 13:57:28;;;;;;;;;;;;;;;;;;;;;
2022/10/08 14:00:41;;;;;;;;;;;;;;;22.51;46.17;99895.56;4309598;33;36739;-93
2022/10/08 14:04:01;;;;;;;;;;;;;;;22.52;46.64;99895.47;4316414;33;36003;-92
2022/10/08 14:06:53;;;;;;;;;;;;;;;22.63;46.08;99888.69;4316158;33;37138;-93
2022/10/08 14:10:17;;;;;;;;;;;;;;;22.52;46.66;99882.25;4315230;33;35943;-91
2022/10/08 14:19:35;;;;;;;;;;;;;;;22.49;46.63;99882.41;4311138;33;36676;-94
2022/10/08 14:22:37;;;;;;;;;;;;;;;22.45;46.84;99880.06;4305587;33;32843;-92
2022/10/08 14:25:27;;;;;;;;;;;;;;;22.61;47.60;99880.84;4305850;33;32775;-95
2022/10/08 14:28:53;;;;;;;;;;;;;;;22.47;47.10;99870.22;4310668;33;33266;-92
2022/10/08 14:31:44;;;;;;;;;;;;;;;22.35;46.57;99875.31;4323194;33;36061;-94
2022/10/08 14:34:38;;;;;;;;;;;;;;;22.40;46.59;99871.53;4311164;33;33356;-94
2022/10/08 14:40:57;;;;;;;;;;;;;;;22.32;47.42;99880.75;4310756;33;35136;-94
2022/10/08 14:43:43;;;;;;;;;;;;;;;22.22;47.78;99876.97;4309061;33;33715;-94
2022/10/08 14:49:40;;;;;;;;;;;;;;;21.98;49.55;99870.44;4318959;33;37343;-95
2022/10/08 14:52:28;;;;;;;;;;;;;;;22.06;49.67;99865.53;4320827;33;36601;-92
2022/10/08 14:58:36;;;;;;;;;;;;;;;21.90;49.93;99868.25;4310816;33;32687;-94
2022/10/08 15:04:42;;;;;;;;;;;;;;;21.83;50.36;99869.53;4328197;33;36368;-95
2022/10/08 15:07:28;;;;;;;;;;;;;;;21.80;50.07;99867.06;4319019;33;32517;-93
2022/10/08 15:10:30;;;;;;;;;;;;;;;21.84;50.23;99868.56;4327393;33;34330;-92
2022/10/08 15:13:13;;;;;;;;;;;;;;;21.76;50.90;99870.81;4325350;33;34531;-94
2022/10/08 15:18:45;;;;;;;;;;;;;;;21.82;49.65;99865.16;4322577;33;32924;-93
2022/10/08 15:21:31;;;;;;;;;;;;;;;21.64;49.60;99862.63;4325551;33;32605;-93
2022/10/08 15:24:11;;;;;;;;;;;;;;;21.57;49.85;99861.28;4326233;33;33341;-91
2022/10/08 15:26:56;;;;;;;;;;;;;;;21.35;50.23;99868.66;4308093;33;37014;-92
2022/10/08 15:29:56;;;;;;;;;;;;;;;21.40;50.29;99864.00;4328492;33;34135;-95
2022/10/08 15:32:36;;;;;;;;;;;;;;;21.29;50.68;99862.78;4330454;33;36056;-93
2022/10/08 15:35:24;;;;;;;;;;;;;;;21.12;51.47;99854.94;4330868;33;33763;-92
2022/10/08 15:38:08;;;;;;;;;;;;;;;21.08;51.78;99864.78;4322427;33;36442;-92
2022/10/08 15:41:07;;;;;;;;;;;;;;;20.92;52.45;99860.41;4313612;33;34329;-91
2022/10/08 15:43:53;;;;;;;;;;;;;;;20.95;52.84;99862.88;4327485;33;32313;-92
2022/10/08 15:46:31;;;;;;;;;;;;;;;20.86;53.49;99864.25;4321982;33;33536;-92
2022/10/08 15:49:13;;;;;;;;;;;;;;;20.70;54.22;99873.88;4330614;33;34401;-91
2022/10/08 15:51:54;;;;;;;;;;;;;;;20.57;54.28;99873.69;4323308;33;34387;-91
2022/10/08 15:55:01;;;;;;;;;;;;;;;20.41;54.91;99869.13;4315762;33;36001;-91
2022/10/08 15:58:24;;;;;;;;;;;;;;;20.29;55.59;99875.03;4327486;33;34298;-93
2022/10/08 16:01:35;;;;;;;;;;;;;;;20.20;56.26;99875.53;4304583;33;34312;-91
2022/10/08 16:04:15;;;;;;;;;;;;;;;19.99;56.97;99878.28;4288478;33;34706;-91